Time;durP1;ratioP1;P1;durP2;ratioP2;P2;SDS_P1;SDS_P2;PMS_P1;PMS_P2;Temp;Humidity;BMP_temperature;BMP_pressure;BME280_temperature;BME280_humidity;BME280_pressure;Samples;Min_cycle;Max_cycle;Signal;HPM_P1;HPM_P2
2021/01/06 00:00:53;;;;;;;26.73;15.73;;;;;;;0.78;100.00;96156.03;5094167;28;21490;-71
2021/01/06 00:03:21;;;;;;;38.57;15.27;;;;;;;0.76;100.00;96160.59;5112701;28;20250;-70
2021/01/06 00:05:50;;;;;;;24.27;14.97;;;;;;;0.87;100.00;96154.16;5114056;28;20172;-71
2021/01/06 00:08:16;;;;;;;23.43;14.07;;;;;;;0.77;100.00;96151.06;5113161;28;21049;-72
2021/01/06 00:10:42;;;;;;;23.23;14.83;;;;;;;0.94;100.00;96149.88;5113991;28;20199;-71
2021/01/06 00:13:08;;;;;;;27.17;15.57;;;;;;;0.98;100.00;96147.72;5113171;27;20224;-70
2021/01/06 00:15:36;;;;;;;47.07;15.70;;;;;;;0.88;100.00;96150.59;5113871;28;20579;-70
2021/01/06 00:18:03;;;;;;;76.87;16.37;;;;;;;0.77;100.00;96156.25;5113192;28;20228;-70
2021/01/06 00:20:31;;;;;;;24.67;14.40;;;;;;;0.83;100.00;96142.63;5113831;28;20176;-70
2021/01/06 00:22:57;;;;;;;24.53;14.57;;;;;;;0.82;100.00;96141.00;5113424;28;20211;-71
2021/01/06 00:25:26;;;;;;;74.17;15.27;;;;;;;0.80;100.00;96143.78;5112682;28;20180;-70
2021/01/06 00:27:52;;;;;;;28.10;14.77;;;;;;;0.90;100.00;96140.88;5114773;28;20611;-71
2021/01/06 00:30:25;;;;;;;66.60;14.80;;;;;;;0.82;100.00;96134.06;5112979;28;20187;-70
2021/01/06 00:32:51;;;;;;;50.40;15.03;;;;;;;0.75;100.00;96145.28;5111898;28;20180;-70
2021/01/06 00:35:19;;;;;;;35.63;15.47;;;;;;;0.62;100.00;96139.97;5110969;28;20171;-70
2021/01/06 00:37:44;;;;;;;28.53;15.00;;;;;;;0.83;100.00;96137.47;5113646;28;20179;-70
2021/01/06 00:40:11;;;;;;;22.57;14.60;;;;;;;0.76;100.00;96150.28;5112871;28;20545;-70
2021/01/06 00:42:37;;;;;;;28.63;14.60;;;;;;;0.79;100.00;96149.09;5112582;28;20688;-70
2021/01/06 00:45:09;;;;;;;27.00;14.80;;;;;;;0.74;100.00;96143.69;5112598;28;20199;-70
2021/01/06 00:47:35;;;;;;;29.50;14.00;;;;;;;0.68;100.00;96142.63;5114597;28;20172;-70
2021/01/06 00:50:01;;;;;;;91.13;16.83;;;;;;;0.56;100.00;96141.50;5112424;28;20225;-70
2021/01/06 00:52:26;;;;;;;156.00;18.33;;;;;;;0.35;100.00;96138.84;5112951;28;20210;-70
2021/01/06 00:54:52;;;;;;;36.53;16.07;;;;;;;0.46;100.00;96138.41;5112544;28;20239;-70
2021/01/06 00:57:17;;;;;;;71.90;16.70;;;;;;;0.39;100.00;96137.53;5111905;28;20199;-70
2021/01/06 00:59:52;;;;;;;43.20;15.23;;;;;;;0.41;100.00;96138.13;5112530;28;20184;-72
2021/01/06 01:02:18;;;;;;;60.70;15.77;;;;;;;0.34;100.00;96132.88;5094340;28;20820;-71
2021/01/06 01:04:45;;;;;;;99.33;16.30;;;;;;;0.24;100.00;96141.88;5092444;28;20300;-72
2021/01/06 01:07:11;;;;;;;55.20;16.43;;;;;;;0.18;100.00;96140.81;5091323;28;20176;-69
2021/01/06 01:09:37;;;;;;;22.80;14.37;;;;;;;0.18;100.00;96147.72;5092497;28;20172;-70
2021/01/06 01:12:06;;;;;;;36.23;15.50;;;;;;;0.29;100.00;96150.66;5091168;28;20173;-70
2021/01/06 01:14:31;;;;;;;21.63;14.70;;;;;;;0.32;100.00;96149.53;5092205;28;20670;-70
2021/01/06 01:17:02;;;;;;;26.73;14.93;;;;;;;0.16;100.00;96147.13;5091420;28;20191;-71
2021/01/06 01:19:28;;;;;;;22.10;14.37;;;;;;;0.25;100.00;96161.50;5091382;28;20175;-70
2021/01/06 01:21:54;;;;;;;21.63;14.67;;;;;;;0.33;100.00;96154.50;5091420;28;20184;-71
2021/01/06 01:24:19;;;;;;;29.47;14.67;;;;;;;0.18;100.00;96153.69;5090796;28;20211;-69
2021/01/06 01:26:49;;;;;;;22.80;14.83;;;;;;;0.28;100.00;96161.94;5091024;28;20643;-70
2021/01/06 01:29:15;;;;;;;29.67;14.93;;;;;;;0.41;100.00;96161.34;5090815;28;20172;-70
2021/01/06 01:31:40;;;;;;;25.50;13.87;;;;;;;0.37;100.00;96163.47;5091357;28;20631;-70
2021/01/06 01:34:06;;;;;;;24.07;14.37;;;;;;;0.31;100.00;96165.97;5091315;28;20196;-70
2021/01/06 01:36:31;;;;;;;37.57;15.13;;;;;;;0.40;100.00;96164.88;5090904;28;20173;-71
2021/01/06 01:38:57;;;;;;;21.80;14.00;;;;;;;0.34;100.00;96170.75;5091446;28;20222;-70
2021/01/06 01:41:26;;;;;;;29.27;14.13;;;;;;;0.26;100.00;96165.69;5090619;28;20199;-70
2021/01/06 01:43:53;;;;;;;19.50;12.60;;;;;;;0.22;100.00;96169.63;5079685;28;20218;-70
2021/01/06 01:46:48;;;;;;;22.00;14.13;;;;;;;0.32;100.00;96165.78;5091017;28;20187;-69
2021/01/06 01:49:17;;;;;;;26.10;13.93;;;;;;;0.28;100.00;96166.34;5091664;28;20690;-69
2021/01/06 01:52:04;;;;;;;26.80;13.83;;;;;;;0.25;100.00;96167.47;5092218;28;20233;-69
2021/01/06 01:54:31;;;;;;;24.27;14.43;;;;;;;0.24;100.00;96160.72;5092131;28;20223;-70
2021/01/06 01:57:17;;;;;;;22.63;13.40;;;;;;;0.27;100.00;96159.56;5091107;28;20185;-70
2021/01/06 01:59:50;;;;;;;23.93;14.07;;;;;;;0.35;100.00;96164.63;5092748;28;20180;-70
2021/01/06 02:02:32;;;;;;;23.23;13.77;;;;;;;0.33;100.00;96159.66;5118511;27;20231;-70
2021/01/06 02:05:05;;;;;;;20.23;13.77;;;;;;;0.41;100.00;96156.19;5121175;27;20214;-70
2021/01/06 02:07:36;;;;;;;22.63;13.97;;;;;;;0.46;100.00;96153.06;5149853;27;20534;-70
2021/01/06 02:10:28;;;;;;;23.87;12.90;;;;;;;0.48;100.00;96154.50;5142976;27;20636;-71
2021/01/06 02:13:03;;;;;;;21.37;13.60;;;;;;;0.44;100.00;96152.47;5142063;27;20179;-70
2021/01/06 02:16:10;;;;;;;19.40;13.67;;;;;;;0.47;100.00;96150.31;5145058;27;20162;-70
2021/01/06 02:18:36;;;;;;;19.83;13.43;;;;;;;0.57;100.00;96150.81;5141775;27;20246;-70
2021/01/06 02:21:13;;;;;;;20.87;12.97;;;;;;;0.51;100.00;96148.97;5137311;27;20167;-71
2021/01/06 02:23:41;;;;;;;18.40;12.23;;;;;;;0.57;100.00;96145.66;5152434;27;20751;-70
2021/01/06 02:26:07;;;;;;;18.73;12.30;;;;;;;0.63;100.00;96139.00;5138867;27;20167;-70
2021/01/06 02:28:33;;;;;;;25.20;12.47;;;;;;;0.56;100.00;96144.06;5147105;27;20175;-70
2021/01/06 02:30:58;;;;;;;22.83;12.87;;;;;;;0.38;100.00;96141.88;5139396;27;20655;-69
2021/01/06 02:33:24;;;;;;;21.63;13.80;;;;;;;0.31;100.00;96146.16;5142381;27;20199;-69
2021/01/06 02:35:52;;;;;;;25.13;12.90;;;;;;;0.43;100.00;96143.13;5146509;27;20223;-69
2021/01/06 02:38:19;;;;;;;21.70;14.03;;;;;;;0.42;100.00;96144.91;5134908;27;20668;-71
2021/01/06 02:40:45;;;;;;;20.63;13.27;;;;;;;0.38;100.00;96141.09;5150508;27;20178;-70
2021/01/06 02:43:11;;;;;;;19.77;12.17;;;;;;;0.39;100.00;96140.88;5150394;27;20205;-70
2021/01/06 02:45:36;;;;;;;48.33;13.23;;;;;;;0.22;100.00;96143.84;5143584;27;20179;-69
2021/01/06 02:48:02;;;;;;;70.30;13.20;;;;;;;0.12;100.00;96140.72;5145649;27;20227;-71
2021/01/06 02:50:30;;;;;;;19.27;12.93;;;;;;;0.16;100.00;96141.97;5133982;27;20682;-69
2021/01/06 02:53:00;;;;;;;25.17;13.57;;;;;;;0.15;100.00;96138.59;5139402;27;20198;-70
2021/01/06 02:55:29;;;;;;;22.70;13.23;;;;;;;0.06;100.00;96141.44;5140506;27;20193;-70
2021/01/06 02:57:58;;;;;;;32.10;13.77;;;;;;;0.16;100.00;96142.78;5148948;27;20182;-70
2021/01/06 03:00:25;;;;;;;35.00;13.63;;;;;;;0.18;100.00;96151.13;5145761;27;20202;-70
2021/01/06 03:02:52;;;;;;;18.90;11.70;;;;;;;0.20;100.00;96143.22;5094151;27;20233;-70
2021/01/06 03:05:27;;;;;;;24.77;12.33;;;;;;;0.08;100.00;96140.28;5094337;28;20204;-70
2021/01/06 03:07:54;;;;;;;182.63;14.77;;;;;;;0.21;100.00;96137.91;5094744;28;20173;-70
2021/01/06 03:10:21;;;;;;;29.10;12.30;;;;;;;0.27;100.00;96136.38;5094602;28;20585;-70
2021/01/06 03:12:50;;;;;;;104.03;12.50;;;;;;;0.17;100.00;96136.63;5094453;28;20164;-70
2021/01/06 03:15:18;;;;;;;16.80;9.97;;;;;;;0.19;100.00;96133.88;5093373;28;20200;-70
2021/01/06 03:17:44;;;;;;;20.70;11.23;;;;;;;0.30;100.00;96136.00;5094455;28;20218;-70
2021/01/06 03:20:19;;;;;;;20.10;10.60;;;;;;;0.25;100.00;96128.03;5093957;28;20177;-70
2021/01/06 03:22:49;;;;;;;101.87;12.33;;;;;;;0.14;100.00;96136.19;5094702;28;20228;-70
2021/01/06 03:25:17;;;;;;;196.60;14.83;;;;;;;-0.25;100.00;96128.69;5092461;28;20200;-70
2021/01/06 03:27:46;;;;;;;51.40;10.73;;;;;;;0.05;100.00;96129.53;5095032;28;20175;-70
2021/01/06 03:30:20;;;;;;;155.37;14.00;;;;;;;0.04;100.00;96127.94;5093820;28;20194;-70
2021/01/06 03:32:55;;;;;;;32.03;10.97;;;;;;;0.10;100.00;96125.47;5094762;28;20172;-70
2021/01/06 03:35:30;;;;;;;142.77;14.03;;;;;;;0.12;100.00;96122.69;5092470;28;20168;-70
2021/01/06 03:38:07;;;;;;;95.40;13.00;;;;;;;-0.14;100.00;96118.78;5094274;28;20545;-70
2021/01/06 03:40:37;;;;;;;215.40;15.93;;;;;;;-0.23;100.00;96119.84;5093696;28;20631;-69
2021/01/06 03:43:10;;;;;;;161.17;15.10;;;;;;;-0.18;100.00;96114.97;5093363;28;20253;-71
2021/01/06 03:45:41;;;;;;;36.57;12.33;;;;;;;-0.17;100.00;96120.91;5094035;28;20175;-70
2021/01/06 03:48:14;;;;;;;20.30;11.60;;;;;;;-0.10;100.00;96120.00;5091348;28;20173;-72
2021/01/06 03:50:42;;;;;;;13.63;9.93;;;;;;;-0.11;100.00;96117.59;5093990;28;20165;-70
2021/01/06 03:53:33;;;;;;;37.93;12.10;;;;;;;-0.16;100.00;96115.56;5093165;28;20177;-71
2021/01/06 03:56:23;;;;;;;15.90;11.43;;;;;;;-0.04;100.00;96119.31;5078461;28;20168;-71
2021/01/06 03:59:05;;;;;;;95.60;12.87;;;;;;;-0.19;100.00;96113.34;5093874;28;20199;-70
2021/01/06 04:02:11;;;;;;;25.97;12.00;;;;;;;-0.16;100.00;96115.56;5091496;28;20224;-70
2021/01/06 04:04:46;;;;;;;40.03;11.47;;;;;;;-0.23;100.00;96114.69;5093224;28;20204;-70
2021/01/06 04:07:23;;;;;;;92.33;13.03;;;;;;;-0.10;100.00;96117.44;5092810;28;20248;-71
2021/01/06 04:09:51;;;;;;;33.27;12.30;;;;;;;-0.15;100.00;96118.94;5084354;28;20168;-70
2021/01/06 04:12:18;;;;;;;20.53;12.13;;;;;;;-0.01;100.00;96111.25;5092788;28;20631;-70
2021/01/06 04:14:44;;;;;;;36.70;11.77;;;;;;;-0.04;100.00;96119.31;5091915;28;20250;-70
2021/01/06 04:17:31;;;;;;;28.23;11.83;;;;;;;-0.03;100.00;96104.66;5092701;28;20168;-71
2021/01/06 04:20:32;;;;;;;119.93;14.33;;;;;;;0.01;100.00;96108.47;5093296;28;20176;-70
2021/01/06 04:23:00;;;;;;;18.20;11.27;;;;;;;-0.12;100.00;96113.47;5056554;28;20211;-70
2021/01/06 04:25:30;;;;;;;73.60;12.83;;;;;;;-0.18;100.00;96106.44;5091627;28;20172;-70
2021/01/06 04:28:08;;;;;;;158.87;17.37;;;;;;;-0.13;100.00;96112.66;5093701;28;20169;-70
2021/01/06 04:30:40;;;;;;;71.73;13.40;;;;;;;-0.13;100.00;96112.66;5093155;28;20174;-70
2021/01/06 04:33:17;;;;;;;306.20;22.53;;;;;;;-0.21;100.00;96117.88;5092483;28;20161;-71
2021/01/06 04:35:43;;;;;;;141.63;15.87;;;;;;;-0.20;100.00;96119.47;5093200;28;20198;-70
2021/01/06 04:38:15;;;;;;;40.60;12.97;;;;;;;-0.25;100.00;96115.81;5091998;28;20579;-71
2021/01/06 04:40:44;;;;;;;27.60;13.33;;;;;;;-0.28;100.00;96108.47;5093401;28;20218;-71
2021/01/06 04:43:28;;;;;;;24.03;11.77;;;;;;;-0.21;100.00;96111.91;5091599;28;20233;-70
2021/01/06 04:46:20;;;;;;;63.63;13.47;;;;;;;-0.25;100.00;96116.63;5093053;28;20164;-70
2021/01/06 04:49:25;;;;;;;35.23;12.93;;;;;;;-0.25;100.00;96108.09;5092787;28;20190;-70
2021/01/06 04:51:56;;;;;;;108.87;15.77;;;;;;;-0.55;100.00;96107.25;5079543;28;20314;-70
2021/01/06 04:54:44;;;;;;;142.10;16.13;;;;;;;-0.43;100.00;96108.44;5092500;28;20196;-70
2021/01/06 04:57:19;;;;;;;29.87;13.33;;;;;;;-0.38;100.00;96119.00;5091796;28;20213;-71
2021/01/06 05:00:09;;;;;;;51.67;13.53;;;;;;;-0.20;100.00;96116.09;5092820;28;20646;-70
2021/01/06 05:02:54;;;;;;;61.33;12.67;;;;;;;-0.40;100.00;96108.09;5105682;28;20238;-70
2021/01/06 05:05:34;;;;;;;67.37;13.30;;;;;;;-0.37;100.00;96112.88;5129205;27;20539;-70
2021/01/06 05:08:25;;;;;;;31.73;12.90;;;;;;;-0.37;100.00;96112.06;5121651;27;20191;-70
2021/01/06 05:10:58;;;;;;;26.83;13.13;;;;;;;-0.32;100.00;96110.56;5118119;27;20245;-70
2021/01/06 05:13:49;;;;;;;66.17;12.80;;;;;;;-0.36;100.00;96116.25;5127058;27;20324;-71
2021/01/06 05:16:38;;;;;;;18.87;12.07;;;;;;;-0.19;100.00;96117.69;5097328;28;20668;-70
2021/01/06 05:19:06;;;;;;;57.60;12.97;;;;;;;-0.09;100.00;96123.38;5126159;27;20210;-70
2021/01/06 05:21:33;;;;;;;128.13;15.57;;;;;;;-0.24;100.00;96125.16;5114446;27;20179;-70
2021/01/06 05:24:11;;;;;;;26.90;13.73;;;;;;;-0.36;100.00;96121.41;5128464;27;20260;-70
2021/01/06 05:26:36;;;;;;;108.87;15.17;;;;;;;-0.39;100.00;96114.81;5113359;27;20168;-70
2021/01/06 05:29:06;;;;;;;29.67;13.50;;;;;;;-0.38;100.00;96118.19;5121408;27;20182;-70
2021/01/06 05:31:31;;;;;;;32.30;13.27;;;;;;;-0.19;100.00;96120.28;5120352;27;20266;-70
2021/01/06 05:33:57;;;;;;;21.67;12.97;;;;;;;-0.20;100.00;96116.09;5129914;27;20302;-71
2021/01/06 05:36:29;;;;;;;64.63;14.33;;;;;;;-0.30;100.00;96113.78;5121853;27;20175;-71
2021/01/06 05:38:56;;;;;;;32.70;13.67;;;;;;;-0.24;100.00;96115.66;5131412;27;20220;-70
2021/01/06 05:41:21;;;;;;;34.23;13.63;;;;;;;-0.19;100.00;96117.69;5113960;27;20171;-70
2021/01/06 05:43:52;;;;;;;41.20;13.07;;;;;;;-0.12;100.00;96121.97;5128947;27;20216;-70
2021/01/06 05:46:31;;;;;;;20.63;12.23;;;;;;;-0.25;100.00;96124.34;5118493;27;20656;-70
2021/01/06 05:49:26;;;;;;;22.37;12.80;;;;;;;-0.33;100.00;96127.00;5120581;27;20197;-70
2021/01/06 05:51:58;;;;;;;23.43;12.40;;;;;;;-0.29;100.00;96125.69;5112334;27;20186;-70
2021/01/06 05:54:52;;;;;;;27.07;13.27;;;;;;;-0.27;100.00;96130.63;5124525;27;20239;-70
2021/01/06 05:57:34;;;;;;;22.57;13.07;;;;;;;-0.32;100.00;96130.38;5117484;27;20693;-70
2021/01/06 06:00:09;;;;;;;39.73;13.87;;;;;;;-0.32;100.00;96138.91;5122319;27;20179;-70
2021/01/06 06:02:56;;;;;;;19.30;12.80;;;;;;;-0.26;100.00;96127.91;5093011;28;20250;-70
2021/01/06 06:05:40;;;;;;;23.50;13.43;;;;;;;-0.25;100.00;96123.56;5104308;28;20185;-70
2021/01/06 06:08:51;;;;;;;24.97;13.07;;;;;;;-0.33;100.00;96129.56;5104855;28;20301;-70
2021/01/06 06:11:32;;;;;;;20.33;13.60;;;;;;;-0.44;100.00;96137.72;5097977;28;20591;-70
2021/01/06 06:14:11;;;;;;;22.03;12.67;;;;;;;-0.44;100.00;96132.56;5096125;28;20799;-70
2021/01/06 06:16:45;;;;;;;22.13;12.83;;;;;;;-0.46;100.00;96137.09;5080252;28;20164;-70
2021/01/06 06:19:30;;;;;;;19.83;12.17;;;;;;;-0.29;100.00;96128.25;5102711;28;20251;-72
2021/01/06 06:22:07;;;;;;;18.17;12.37;;;;;;;-0.23;100.00;96127.56;5106428;28;20183;-70
2021/01/06 06:25:04;;;;;;;19.07;12.00;;;;;;;-0.13;100.00;96130.69;5094372;28;20222;-70
2021/01/06 06:27:35;;;;;;;15.83;11.00;;;;;;;-0.20;100.00;96129.78;5098879;28;20204;-70
2021/01/06 06:30:21;;;;;;;19.63;12.13;;;;;;;-0.10;100.00;96138.03;5107403;28;20232;-70
2021/01/06 06:32:48;;;;;;;24.27;12.57;;;;;;;-0.16;100.00;96138.75;5084264;28;20184;-70
2021/01/06 06:35:37;;;;;;;16.77;11.77;;;;;;;-0.27;100.00;96126.28;5105806;28;20658;-71
2021/01/06 06:38:08;;;;;;;17.43;11.23;;;;;;;-0.19;100.00;96131.38;5096482;28;20179;-71
2021/01/06 06:41:00;;;;;;;19.37;12.20;;;;;;;-0.17;100.00;96144.09;5111214;28;20188;-71
2021/01/06 06:43:43;;;;;;;18.20;11.87;;;;;;;-0.24;100.00;96153.47;5105091;28;20236;-71
2021/01/06 06:46:33;;;;;;;15.77;10.87;;;;;;;-0.32;100.00;96150.97;5109474;28;20191;-71
2021/01/06 06:49:23;;;;;;;18.13;12.13;;;;;;;-0.31;100.00;96157.72;5087949;28;20540;-70
2021/01/06 06:52:00;;;;;;;22.90;11.40;;;;;;;-0.32;100.00;96150.97;5091052;28;20208;-71
2021/01/06 06:54:58;;;;;;;15.90;10.93;;;;;;;-0.36;100.00;96152.28;5092461;28;20275;-70
2021/01/06 06:57:43;;;;;;;17.80;11.30;;;;;;;-0.39;100.00;96158.56;5061726;28;20215;-70
2021/01/06 07:00:23;;;;;;;16.57;11.70;;;;;;;-0.50;100.00;96159.78;5095570;28;20183;-65
2021/01/06 07:02:59;;;;;;;18.67;11.50;;;;;;;-0.33;100.00;96162.22;5110570;27;20231;-66
2021/01/06 07:05:40;;;;;;;16.50;11.37;;;;;;;-0.41;100.00;96170.84;5124395;27;20180;-66
2021/01/06 07:08:15;;;;;;;15.37;9.93;;;;;;;-0.32;100.00;96176.72;5128529;27;20178;-62
2021/01/06 07:10:45;;;;;;;13.57;9.37;;;;;;;-0.40;100.00;96174.22;5127669;27;20574;-62
2021/01/06 07:13:18;;;;;;;12.67;9.77;;;;;;;-0.27;100.00;96170.06;5119370;27;20164;-61
2021/01/06 07:15:57;;;;;;;16.93;9.63;;;;;;;-0.36;100.00;96173.69;5125670;27;20204;-59
2021/01/06 07:18:36;;;;;;;13.20;9.20;;;;;;;-0.24;100.00;96176.66;5125299;27;20177;-60
2021/01/06 07:21:17;;;;;;;12.67;9.33;;;;;;;-0.25;100.00;96165.53;5126508;27;20177;-59
2021/01/06 07:24:01;;;;;;;16.00;10.40;;;;;;;-0.14;100.00;96159.97;5107462;28;20222;-61
2021/01/06 07:26:32;;;;;;;14.10;9.30;;;;;;;-0.29;100.00;96173.81;5118904;27;20176;-61
2021/01/06 07:29:04;;;;;;;17.70;11.00;;;;;;;-0.18;100.00;96173.38;5125505;27;20646;-60
2021/01/06 07:31:38;;;;;;;17.53;11.47;;;;;;;-0.18;100.00;96169.03;5128849;27;20242;-59
2021/01/06 07:34:06;;;;;;;17.13;11.03;;;;;;;-0.10;100.00;96179.25;5124025;27;20206;-58
2021/01/06 07:36:46;;;;;;;15.43;9.97;;;;;;;-0.16;100.00;96177.38;5119911;27;20165;-58
2021/01/06 07:39:23;;;;;;;14.87;9.70;;;;;;;0.03;100.00;96175.28;5122250;27;20194;-59
2021/01/06 07:41:49;;;;;;;13.57;9.77;;;;;;;0.00;100.00;96189.31;5121934;27;20180;-61
2021/01/06 07:44:25;;;;;;;11.00;9.03;;;;;;;0.07;100.00;96182.47;5129382;27;20203;-61
2021/01/06 07:47:13;;;;;;;11.97;8.97;;;;;;;0.05;100.00;96175.91;5121039;27;20170;-61
2021/01/06 07:49:59;;;;;;;14.33;8.60;;;;;;;0.13;100.00;96179.19;5120243;27;20182;-61
2021/01/06 07:52:52;;;;;;;13.43;9.63;;;;;;;0.12;100.00;96187.09;5122144;27;21012;-61
2021/01/06 07:55:26;;;;;;;10.20;8.07;;;;;;;-0.14;100.00;96198.59;5121515;27;20230;-61
2021/01/06 07:58:07;;;;;;;13.27;8.57;;;;;;;-0.03;100.00;96197.38;5122514;27;20186;-61
2021/01/06 08:00:46;;;;;;;12.47;8.67;;;;;;;0.06;100.00;96190.38;5129120;27;20174;-63
2021/01/06 08:03:27;;;;;;;14.37;9.43;;;;;;;0.18;100.00;96196.69;5128191;27;20222;-59
2021/01/06 08:06:01;;;;;;;11.30;8.40;;;;;;;0.11;100.00;96204.34;5120535;27;20592;-61
2021/01/06 08:08:47;;;;;;;10.77;8.13;;;;;;;0.15;100.00;96209.94;5124470;27;20171;-63
2021/01/06 08:11:15;;;;;;;12.07;9.03;;;;;;;0.19;100.00;96203.44;5115536;27;20176;-63
2021/01/06 08:13:46;;;;;;;12.73;8.97;;;;;;;0.15;100.00;96197.84;5114035;27;20261;-63
2021/01/06 08:16:21;;;;;;;10.70;8.83;;;;;;;0.16;100.00;96203.81;5093952;27;20551;-63
2021/01/06 08:18:52;;;;;;;12.73;8.97;;;;;;;0.02;100.00;96202.81;5130248;27;20533;-63
2021/01/06 08:21:28;;;;;;;12.50;9.87;;;;;;;0.06;100.00;96203.28;5134061;27;20171;-63
2021/01/06 08:24:28;;;;;;;10.63;8.33;;;;;;;0.19;100.00;96195.72;5134534;27;20569;-62
2021/01/06 08:26:57;;;;;;;14.53;9.30;;;;;;;0.32;100.00;96201.06;5129293;27;20198;-62
2021/01/06 08:29:34;;;;;;;11.50;8.80;;;;;;;0.22;100.00;96203.09;5133300;27;20193;-63
2021/01/06 08:32:22;;;;;;;10.77;8.37;;;;;;;0.10;100.00;96210.47;5134327;27;20171;-62
2021/01/06 08:34:59;;;;;;;13.70;9.03;;;;;;;0.16;100.00;96222.66;5134184;27;20578;-63
2021/01/06 08:37:33;;;;;;;11.50;8.27;;;;;;;0.24;100.00;96204.50;5133240;27;20201;-66
2021/01/06 08:39:59;;;;;;;11.63;8.23;;;;;;;0.18;100.00;96204.41;5130142;27;20253;-64
2021/01/06 08:42:27;;;;;;;10.40;8.83;;;;;;;0.18;100.00;96202.66;5112614;28;20184;-63
2021/01/06 08:44:58;;;;;;;13.00;9.27;;;;;;;0.22;100.00;96203.91;5113568;28;20333;-63
2021/01/06 08:47:37;;;;;;;13.03;9.30;;;;;;;0.23;100.00;96205.50;5112744;28;20626;-65
2021/01/06 08:50:35;;;;;;;12.07;9.07;;;;;;;0.06;100.00;96208.44;5113202;28;20172;-64
2021/01/06 08:53:03;;;;;;;11.63;9.23;;;;;;;0.12;100.00;96213.66;5113124;28;20725;-63
2021/01/06 08:55:52;;;;;;;13.40;9.47;;;;;;;0.03;100.00;96212.13;5111660;28;20219;-63
2021/01/06 08:58:18;;;;;;;11.20;9.07;;;;;;;0.06;100.00;96213.56;5112648;28;20555;-64
2021/01/06 09:01:04;;;;;;;16.80;8.93;;;;;;;0.00;100.00;96222.81;5110903;28;20184;-64
2021/01/06 09:03:33;;;;;;;11.73;8.67;;;;;;;0.11;100.00;96217.22;5111214;28;20263;-63
2021/01/06 09:06:10;;;;;;;11.20;8.70;;;;;;;0.22;100.00;96216.78;5113049;28;20224;-63
2021/01/06 09:08:35;;;;;;;11.00;8.30;;;;;;;0.16;100.00;96217.50;5112439;28;20179;-65
2021/01/06 09:11:01;;;;;;;11.53;9.07;;;;;;;0.20;100.00;96228.25;5113001;28;20284;-65
2021/01/06 09:13:35;;;;;;;10.93;9.13;;;;;;;0.07;100.00;96221.09;5111970;28;20188;-65
2021/01/06 09:16:09;;;;;;;12.10;9.23;;;;;;;0.05;100.00;96228.22;5112780;28;20239;-65
2021/01/06 09:18:40;;;;;;;12.00;9.17;;;;;;;0.07;100.00;96223.69;5110726;28;20269;-63
2021/01/06 09:21:11;;;;;;;10.73;8.50;;;;;;;0.05;100.00;96228.22;5109525;28;20168;-63
2021/01/06 09:23:39;;;;;;;12.23;9.27;;;;;;;0.04;100.00;96231.78;5112715;28;20685;-63
2021/01/06 09:26:05;;;;;;;11.77;8.70;;;;;;;0.07;100.00;96233.97;5112732;28;20278;-64
2021/01/06 09:28:37;;;;;;;11.53;8.70;;;;;;;0.19;100.00;96234.38;5111915;28;20812;-65
2021/01/06 09:31:04;;;;;;;10.47;8.40;;;;;;;0.19;100.00;96236.94;5112339;28;20685;-65
2021/01/06 09:33:32;;;;;;;10.27;8.50;;;;;;;0.29;100.00;96240.06;5110663;28;20245;-64
2021/01/06 09:36:03;;;;;;;12.90;8.23;;;;;;;0.38;100.00;96250.13;5112680;28;20213;-65
2021/01/06 09:38:34;;;;;;;10.97;8.27;;;;;;;0.36;100.00;96246.13;5111709;28;20235;-64
2021/01/06 09:41:04;;;;;;;8.87;7.33;;;;;;;0.49;100.00;96243.75;5111973;28;20183;-64
2021/01/06 09:43:36;;;;;;;9.37;7.33;;;;;;;0.45;100.00;96249.44;5111615;28;20216;-65
2021/01/06 09:46:20;;;;;;;9.13;7.10;;;;;;;0.43;100.00;96254.75;5112552;28;20164;-64
2021/01/06 09:48:52;;;;;;;10.20;8.27;;;;;;;0.53;100.00;96242.41;5112785;28;20588;-65
2021/01/06 09:51:21;;;;;;;17.97;8.93;;;;;;;0.50;100.00;96244.53;5111532;28;20221;-64
2021/01/06 09:53:51;;;;;;;9.93;7.40;;;;;;;0.39;100.00;96251.72;5111924;28;20210;-64
2021/01/06 09:56:22;;;;;;;10.53;7.90;;;;;;;0.57;100.00;96243.63;5111549;28;20206;-64
2021/01/06 09:58:48;;;;;;;10.60;8.23;;;;;;;0.50;100.00;96244.53;5112257;28;20176;-63
2021/01/06 10:01:26;;;;;;;10.63;8.17;;;;;;;0.57;100.00;96237.69;5109418;28;20262;-63
2021/01/06 10:03:55;;;;;;;12.57;8.90;;;;;;;0.54;100.00;96238.06;5111724;28;20222;-64
2021/01/06 10:06:39;;;;;;;10.80;8.17;;;;;;;0.30;100.00;96247.63;5111838;28;20164;-63
2021/01/06 10:09:16;;;;;;;9.77;7.53;;;;;;;0.28;100.00;96241.06;5119007;28;20202;-64
2021/01/06 10:11:56;;;;;;;11.07;7.37;;;;;;;0.25;100.00;96241.41;5119045;28;20168;-63
2021/01/06 10:14:48;;;;;;;8.90;7.37;;;;;;;0.27;100.00;96239.47;5118312;28;20198;-63
2021/01/06 10:17:25;;;;;;;9.10;7.60;;;;;;;0.33;100.00;96239.56;5118522;28;20171;-63
2021/01/06 10:20:28;;;;;;;8.00;6.77;;;;;;;0.33;100.00;96231.03;5119162;28;20634;-65
2021/01/06 10:22:57;;;;;;;9.30;7.47;;;;;;;0.39;100.00;96238.81;5118498;28;20198;-64
2021/01/06 10:25:38;;;;;;;7.87;7.07;;;;;;;0.38;100.00;96232.09;5117453;28;20168;-62
2021/01/06 10:28:32;;;;;;;8.00;6.80;;;;;;;0.34;100.00;96235.19;5115890;28;20228;-63
2021/01/06 10:31:08;;;;;;;8.70;7.27;;;;;;;0.30;100.00;96234.75;5120059;28;20172;-63
2021/01/06 10:33:36;;;;;;;9.97;7.80;;;;;;;0.38;100.00;96231.28;5101062;28;20400;-62
2021/01/06 10:36:27;;;;;;;8.30;7.10;;;;;;;0.47;100.00;96226.84;5119246;28;20637;-64
2021/01/06 10:38:53;;;;;;;9.10;7.30;;;;;;;0.48;100.00;96231.03;5107708;28;20195;-61
2021/01/06 10:41:19;;;;;;;9.07;7.80;;;;;;;0.51;100.00;96226.31;5117643;28;20175;-64
2021/01/06 10:43:46;;;;;;;8.23;7.00;;;;;;;0.38;100.00;96231.28;5117305;28;20584;-62
2021/01/06 10:46:39;;;;;;;8.83;7.47;;;;;;;0.39;100.00;96228.50;5118091;28;20176;-63
2021/01/06 10:49:17;;;;;;;8.57;7.63;;;;;;;0.43;100.00;96228.19;5113739;28;20195;-63
2021/01/06 10:51:56;;;;;;;9.73;7.77;;;;;;;0.45;100.00;96223.66;5115277;28;20638;-64
2021/01/06 10:54:49;;;;;;;10.40;7.43;;;;;;;0.33;100.00;96228.44;5113466;28;20260;-65
2021/01/06 10:57:14;;;;;;;10.77;8.30;;;;;;;0.35;100.00;96224.69;5118585;28;20266;-62
2021/01/06 10:59:40;;;;;;;8.60;7.53;;;;;;;0.28;100.00;96223.03;5117501;28;20619;-58
2021/01/06 11:02:56;;;;;;;8.67;7.40;;;;;;;0.26;100.00;96230.91;5115388;28;20235;-61
2021/01/06 11:05:36;;;;;;;9.20;7.40;;;;;;;0.42;100.00;96224.78;5074060;28;20203;-62
2021/01/06 11:08:39;;;;;;;8.87;7.53;;;;;;;0.46;100.00;96220.88;5118443;28;20175;-65
2021/01/06 11:11:18;;;;;;;9.80;7.87;;;;;;;0.36;100.00;96217.78;5118221;28;20175;-63
2021/01/06 11:14:10;;;;;;;8.47;7.30;;;;;;;0.49;100.00;96220.53;5118075;28;20610;-63
2021/01/06 11:16:55;;;;;;;9.87;7.83;;;;;;;0.51;100.00;96216.00;5117152;28;20779;-63
2021/01/06 11:19:47;;;;;;;10.23;8.13;;;;;;;0.43;100.00;96218.66;5113649;28;20537;-62
2021/01/06 11:22:43;;;;;;;9.10;7.47;;;;;;;0.50;100.00;96218.75;5113569;28;20168;-63
2021/01/06 11:25:42;;;;;;;9.17;7.53;;;;;;;0.58;100.00;96216.09;5113880;28;20204;-64
2021/01/06 11:28:27;;;;;;;10.07;7.80;;;;;;;0.65;100.00;96217.78;5114560;28;20184;-63
2021/01/06 11:31:18;;;;;;;10.00;8.27;;;;;;;0.58;100.00;96214.31;5113909;28;20199;-64
2021/01/06 11:33:48;;;;;;;11.13;8.47;;;;;;;0.65;100.00;96212.63;5113561;28;20705;-65
2021/01/06 11:36:30;;;;;;;11.23;8.13;;;;;;;0.69;100.00;96206.13;5114514;28;20172;-64
2021/01/06 11:38:59;;;;;;;11.30;8.57;;;;;;;0.68;100.00;96208.88;5114012;28;20172;-64
2021/01/06 11:41:25;;;;;;;10.33;8.37;;;;;;;0.57;100.00;96202.38;5114138;28;20575;-64
2021/01/06 11:44:17;;;;;;;10.33;8.10;;;;;;;0.58;100.00;96198.03;5114315;28;20282;-64
2021/01/06 11:46:53;;;;;;;11.67;8.80;;;;;;;0.59;100.00;96200.44;5112832;28;20207;-65
2021/01/06 11:49:23;;;;;;;9.80;8.33;;;;;;;0.48;100.00;96203.47;5113858;28;20183;-64
2021/01/06 11:52:26;;;;;;;12.57;8.57;;;;;;;0.54;100.00;96204.53;5113698;28;20191;-65
2021/01/06 11:55:00;;;;;;;10.20;8.20;;;;;;;0.63;100.00;96198.28;5113487;28;20620;-65